Aigle, Switzerland

4:05 AM CEST on September 28, 2016 (GMT +0200)
Meteovouvry.ch | | Change Station

Elev 1280 ft 46.34 °N, 6.89 °E | Updated 8 seconds ago

Clear
Clear
57.4 °F
Feels Like 57.4 °F
N
3.0
Wind Variable Wind from SW
Gusts 5.0 mph

Today
High -- | Low -- °F
--% Chance of Precip.
Yesterday
High -- | Low -- °F
Precip. -- in
Pressure 30.42 in
Visibility -9999.0 miles
Clouds
Dew Point 52 °F
Humidity 83%
Rainfall 0.00 in
Snow Depth Not available.
7:27 AM 7:17 PM
Waning Crescent, 8% visible
METAR LSMP 280150Z AUTO 16002KT 4200NDV NCD 09/09 Q1030 RMK
Pressure 30.42 in
Visibility -9999.0 miles
Clouds
Dew Point 52 °F
Humidity 83%
Rainfall 0.00 in
Snow Depth Not available.
7:27 AM 7:17 PM
Waning Crescent, 8% visible
METAR LSMP 280150Z AUTO 16002KT 4200NDV NCD 09/09 Q1030 RMK

10-Day Weather Forecast

×

Almanac

Astronomy

Sep. 28, 2016 Rise Set
Actual Time
Civil Twilight
Nautical Twilight
Astronomical Twilight
Moon
Length of Visible Light
Length of Day
Tomorrow will be .
, % of the Moon is Illuminated

Today's Extremes

Country Highs Country Lows

Community

WunderPhotos

Upload Photos

1,942,185 photos uploaded!

WunderBlog® & News

Nearby

Air Quality

  Air Quality AQ Index Pollutant
Not available.

Snow Depth

Station Depth Elevation

Earthquake Activity

City Distance Mag. Time & Date
Minimum magnitude displayed is 2.5.

Coastal Water Temperatures

Place Temperature

Stations

Nearby Weather Stations

Station Location Temp. Windchill Dew Point Humidity Wind Precip. Elev Updated Type